Time;durP1;ratioP1;P1;durP2;ratioP2;P2;SDS_P1;SDS_P2;PMS_P1;PMS_P2;Temp;Humidity;BMP_temperature;BMP_pressure;BME280_temperature;BME280_humidity;BME280_pressure;Samples;Min_cycle;Max_cycle;Signal;HPM_P1;HPM_P2
2021/03/21 00:01:08;;;;;;;17.03;6.73;;;;;;;10.54;62.20;101256.94;5076189;28;20454;-54
2021/03/21 00:03:36;;;;;;;11.57;4.77;;;;;;;11.02;61.89;101251.53;5065917;28;20443;-58
2021/03/21 00:06:04;;;;;;;17.40;7.00;;;;;;;10.64;62.11;101251.44;5055876;28;20567;-54
2021/03/21 00:08:33;;;;;;;14.97;7.40;;;;;;;10.56;62.11;101250.16;5055408;28;20461;-54
2021/03/21 00:11:04;;;;;;;16.57;6.53;;;;;;;11.08;61.14;101245.78;5056521;28;20487;-56
2021/03/21 00:13:32;;;;;;;18.43;6.80;;;;;;;11.03;61.02;101252.41;5055432;28;20570;-58
2021/03/21 00:16:00;;;;;;;11.43;5.10;;;;;;;10.98;61.15;101243.56;5055720;28;20546;-52
2021/03/21 00:18:29;;;;;;;13.67;6.10;;;;;;;11.01;61.04;101238.53;5062986;28;20487;-50
2021/03/21 00:21:09;;;;;;;18.13;5.17;;;;;;;10.96;61.24;101234.88;5076163;28;20455;-51
2021/03/21 00:23:38;;;;;;;8.17;3.10;;;;;;;10.68;62.20;101229.25;5073731;28;20453;-53
2021/03/21 00:26:06;;;;;;;9.90;3.93;;;;;;;10.54;62.28;101226.00;5050726;28;20877;-55
2021/03/21 00:28:34;;;;;;;15.10;5.50;;;;;;;11.04;61.39;101218.03;5046042;28;20457;-53
2021/03/21 00:31:01;;;;;;;12.87;5.50;;;;;;;10.74;62.07;101220.91;5060486;28;20486;-51
2021/03/21 00:33:31;;;;;;;9.93;4.07;;;;;;;10.92;62.44;101216.63;5074442;28;20473;-53
2021/03/21 00:35:58;;;;;;;11.97;4.97;;;;;;;10.58;62.43;101209.84;5075026;28;20422;-51
2021/03/21 00:38:26;;;;;;;7.33;2.20;;;;;;;10.40;63.33;101202.03;5074478;28;20620;-51
2021/03/21 00:41:03;;;;;;;12.80;3.87;;;;;;;10.61;62.64;101186.78;5072803;28;20430;-52
2021/03/21 00:43:30;;;;;;;10.33;4.43;;;;;;;10.81;62.32;101189.41;5074424;28;20445;-52
2021/03/21 00:45:57;;;;;;;9.33;4.30;;;;;;;10.94;61.94;101190.91;5074996;28;20546;-50
2021/03/21 00:48:26;;;;;;;14.37;4.90;;;;;;;10.93;61.98;101178.81;5074081;28;20827;-54
2021/03/21 00:50:55;;;;;;;9.90;4.10;;;;;;;10.86;62.13;101177.63;5072573;28;20486;-56
2021/03/21 00:53:21;;;;;;;12.23;5.03;;;;;;;11.24;61.23;101161.25;5072880;28;20480;-53
2021/03/21 00:55:49;;;;;;;14.00;4.60;;;;;;;10.84;62.72;101158.59;5075328;28;20533;-51
2021/03/21 00:58:17;;;;;;;10.50;4.50;;;;;;;10.94;61.94;101154.75;5074258;28;20776;-54
2021/03/21 01:00:46;;;;;;;11.10;4.43;;;;;;;10.88;62.17;101145.00;5075608;28;20491;-52
2021/03/21 01:03:13;;;;;;;13.17;4.80;;;;;;;11.14;61.92;101149.63;5074600;28;20991;-55
2021/03/21 01:05:42;;;;;;;9.97;4.60;;;;;;;10.98;62.54;101146.31;5075304;28;20437;-56
2021/03/21 01:08:17;;;;;;;13.10;5.10;;;;;;;11.12;62.08;101144.38;5074436;28;20883;-55
2021/03/21 01:10:45;;;;;;;9.10;4.83;;;;;;;10.90;62.60;101143.41;5075445;28;20573;-51
2021/03/21 01:13:11;;;;;;;14.70;5.47;;;;;;;11.29;61.65;101146.84;5073870;28;20473;-58
2021/03/21 01:15:39;;;;;;;11.03;4.77;;;;;;;11.18;61.61;101148.97;5075123;28;20452;-53
2021/03/21 01:18:06;;;;;;;21.63;5.80;;;;;;;11.18;61.89;101142.09;5074367;28;20532;-52
2021/03/21 01:20:33;;;;;;;11.93;5.10;;;;;;;11.42;61.61;101144.00;5067552;28;20943;-52
2021/03/21 01:23:00;;;;;;;19.17;6.17;;;;;;;11.53;60.91;101153.94;5054225;28;20743;-56
2021/03/21 01:25:28;;;;;;;13.63;4.13;;;;;;;10.74;63.32;101151.22;5054852;28;20564;-53
2021/03/21 01:27:55;;;;;;;15.30;6.00;;;;;;;11.35;62.94;101127.34;5054044;28;20472;-54
2021/03/21 01:30:23;;;;;;;7.37;4.10;;;;;;;11.23;62.58;101115.59;5055178;28;20464;-55
2021/03/21 01:32:52;;;;;;;17.10;5.50;;;;;;;10.99;63.26;101106.81;5070989;28;20928;-55
2021/03/21 01:35:19;;;;;;;9.40;5.07;;;;;;;11.18;62.68;101111.09;5074323;28;20446;-53
2021/03/21 01:37:46;;;;;;;10.30;5.70;;;;;;;11.29;62.54;101113.28;5073590;28;20437;-50
2021/03/21 01:40:15;;;;;;;13.93;6.00;;;;;;;11.68;61.67;101100.31;5074557;28;20533;-51
2021/03/21 01:42:45;;;;;;;13.93;4.80;;;;;;;10.98;63.58;101089.53;5071552;28;20542;-52
2021/03/21 01:45:31;;;;;;;10.67;3.97;;;;;;;11.13;62.70;101081.59;5074536;28;20432;-51
2021/03/21 01:47:59;;;;;;;9.63;4.47;;;;;;;11.29;62.82;101082.28;5072953;28;20460;-55
2021/03/21 01:50:31;;;;;;;16.37;4.90;;;;;;;11.37;62.78;101072.28;5074315;28;20858;-55
2021/03/21 01:52:57;;;;;;;11.57;4.53;;;;;;;11.14;63.41;101077.31;5072567;28;20525;-51
2021/03/21 01:55:25;;;;;;;12.00;5.60;;;;;;;11.23;62.80;101059.63;5074344;28;20458;-56
2021/03/21 01:57:56;;;;;;;18.03;5.20;;;;;;;11.00;63.37;101077.59;5073448;28;20556;-51
2021/03/21 02:00:23;;;;;;;12.00;5.60;;;;;;;10.92;63.71;101074.66;5071267;28;20756;-50
2021/03/21 02:02:50;;;;;;;11.90;5.60;;;;;;;11.18;63.05;101067.19;5069800;28;20876;-53
2021/03/21 02:05:19;;;;;;;11.07;6.00;;;;;;;11.55;62.33;101069.59;5053886;28;20533;-53
2021/03/21 02:08:00;;;;;;;9.80;3.93;;;;;;;11.45;63.00;101084.69;5053654;28;20435;-50
2021/03/21 02:10:33;;;;;;;17.33;5.20;;;;;;;11.14;63.19;101075.63;5053467;28;20774;-48
2021/03/21 02:13:03;;;;;;;7.20;3.37;;;;;;;11.21;63.24;101061.28;5054867;28;20480;-54
2021/03/21 02:15:32;;;;;;;8.53;4.30;;;;;;;10.98;63.62;101070.59;5061071;28;20434;-55
2021/03/21 02:18:05;;;;;;;12.00;5.80;;;;;;;11.61;62.48;101059.53;5064651;28;20794;-55
2021/03/21 02:20:50;;;;;;;8.97;4.07;;;;;;;11.40;61.93;101070.72;5064153;28;20435;-56
2021/03/21 02:23:37;;;;;;;8.37;3.27;;;;;;;10.95;63.86;101058.41;5063522;28;20473;-50
2021/03/21 02:26:15;;;;;;;6.90;3.60;;;;;;;11.39;62.21;101061.19;5074045;28;20451;-52
2021/03/21 02:29:01;;;;;;;14.97;3.00;;;;;;;11.01;63.13;101043.19;5076842;28;20449;-52
2021/03/21 02:31:31;;;;;;;9.23;3.67;;;;;;;11.54;61.87;101039.41;5075298;28;20490;-52
2021/03/21 02:34:01;;;;;;;5.43;2.40;;;;;;;11.46;62.40;101024.47;5060483;28;20938;-52
2021/03/21 02:36:33;;;;;;;6.70;3.10;;;;;;;11.06;63.66;101030.50;5055468;28;20438;-51
2021/03/21 02:39:07;;;;;;;5.77;2.53;;;;;;;11.37;63.47;101025.78;5069133;28;20445;-55
2021/03/21 02:41:37;;;;;;;5.20;2.73;;;;;;;11.44;62.70;101007.16;5077779;28;20425;-56
2021/03/21 02:44:07;;;;;;;4.00;1.90;;;;;;;11.12;63.18;100989.44;5073718;28;20437;-49
2021/03/21 02:46:39;;;;;;;4.83;1.73;;;;;;;11.52;62.04;100986.78;5077517;28;20767;-52
2021/03/21 02:49:14;;;;;;;7.83;3.50;;;;;;;11.48;62.43;100986.66;5074072;28;20440;-55
2021/03/21 02:51:44;;;;;;;3.57;2.00;;;;;;;10.99;63.18;100997.47;5077366;28;21002;-52
2021/03/21 02:54:13;;;;;;;7.13;2.77;;;;;;;11.33;62.48;101004.97;5076142;28;21008;-55
2021/03/21 02:56:45;;;;;;;6.63;3.17;;;;;;;11.25;62.66;100992.56;5077323;28;20462;-58
2021/03/21 02:59:14;;;;;;;5.30;3.17;;;;;;;11.40;62.43;101000.06;5076276;28;20478;-51
2021/03/21 03:01:44;;;;;;;6.00;2.53;;;;;;;11.42;61.91;100999.31;5077380;28;20735;-52
2021/03/21 03:04:14;;;;;;;8.17;3.23;;;;;;;11.48;62.18;100993.53;5075461;28;20561;-50
2021/03/21 03:06:45;;;;;;;11.93;4.23;;;;;;;11.35;62.04;100986.97;5077810;28;20516;-52
2021/03/21 03:09:17;;;;;;;3.50;1.83;;;;;;;11.25;62.01;100985.69;5076580;28;20899;-49
2021/03/21 03:11:47;;;;;;;8.97;2.10;;;;;;;10.89;63.74;100971.28;5077539;28;20875;-47
2021/03/21 03:14:15;;;;;;;6.97;3.23;;;;;;;10.96;63.37;100971.53;5076162;28;20481;-54
2021/03/21 03:16:48;;;;;;;12.97;3.83;;;;;;;11.13;62.48;100964.50;5077548;28;20463;-51
2021/03/21 03:19:23;;;;;;;20.13;4.03;;;;;;;11.18;62.25;100978.50;5076408;28;20506;-51
2021/03/21 03:21:55;;;;;;;12.63;3.57;;;;;;;11.11;63.24;100964.44;5077231;28;20529;-54
2021/03/21 03:24:33;;;;;;;9.40;3.60;;;;;;;11.00;63.02;100953.66;5076062;28;20501;-52
2021/03/21 03:27:06;;;;;;;9.17;3.60;;;;;;;11.14;62.37;100950.78;5077431;28;20554;-53
2021/03/21 03:29:35;;;;;;;11.03;2.63;;;;;;;10.83;62.24;100954.63;5076181;28;20754;-50
2021/03/21 03:32:06;;;;;;;7.07;2.27;;;;;;;11.02;62.51;100953.72;5077096;28;20462;-50
2021/03/21 03:34:34;;;;;;;5.93;2.37;;;;;;;10.89;62.93;100939.41;5075731;28;20449;-52
2021/03/21 03:37:03;;;;;;;11.87;4.17;;;;;;;11.26;62.58;100937.50;5076895;28;20971;-55
2021/03/21 03:39:31;;;;;;;12.97;4.20;;;;;;;11.44;61.65;100930.50;5076129;28;20483;-56
2021/03/21 03:42:02;;;;;;;15.47;3.27;;;;;;;11.07;62.18;100934.13;5077113;28;20881;-51
2021/03/21 03:44:33;;;;;;;12.40;2.80;;;;;;;10.93;62.40;100937.00;5075588;28;20478;-53
2021/03/21 03:47:05;;;;;;;11.37;3.30;;;;;;;11.52;61.18;100935.09;5077019;28;20513;-55
2021/03/21 03:49:41;;;;;;;12.13;3.20;;;;;;;11.20;62.13;100918.38;5075999;28;20454;-53
2021/03/21 03:52:20;;;;;;;10.27;2.80;;;;;;;11.04;62.88;100905.63;5076935;28;20544;-53
2021/03/21 03:54:52;;;;;;;12.33;4.37;;;;;;;11.17;62.53;100910.47;5075670;28;20775;-53
2021/03/21 03:57:22;;;;;;;14.30;3.13;;;;;;;11.18;62.49;100907.06;5076749;28;20434;-52
2021/03/21 03:59:57;;;;;;;20.33;4.57;;;;;;;11.01;62.94;100923.53;5075594;28;20775;-57
2021/03/21 04:02:29;;;;;;;13.00;3.57;;;;;;;11.32;61.98;100922.25;5076487;28;20475;-48
2021/03/21 04:05:03;;;;;;;17.07;3.63;;;;;;;10.94;62.44;100918.13;5056060;28;20493;-51
2021/03/21 04:07:38;;;;;;;16.90;3.50;;;;;;;10.80;61.94;100919.22;5056292;28;21324;-51
2021/03/21 04:10:09;;;;;;;9.97;3.03;;;;;;;10.96;61.08;100917.31;5076208;28;20993;-51
2021/03/21 04:12:40;;;;;;;9.43;2.80;;;;;;;10.98;60.63;100924.28;5076298;28;20463;-53
2021/03/21 04:15:10;;;;;;;13.03;3.80;;;;;;;11.37;59.63;100906.97;5076016;28;20457;-52
2021/03/21 04:17:42;;;;;;;15.90;3.80;;;;;;;10.99;60.53;100904.53;5075780;28;20779;-49
2021/03/21 04:20:12;;;;;;;13.40;2.40;;;;;;;10.86;59.90;100909.16;5076243;28;20884;-55
2021/03/21 04:22:43;;;;;;;20.30;3.37;;;;;;;10.54;60.55;100906.06;5075876;28;20746;-52
2021/03/21 04:25:15;;;;;;;14.50;3.00;;;;;;;11.03;59.69;100890.94;5073370;28;20781;-55
2021/03/21 04:27:46;;;;;;;19.80;3.67;;;;;;;10.87;60.22;100895.44;5055551;28;20434;-57
2021/03/21 04:30:16;;;;;;;14.73;2.60;;;;;;;10.86;59.93;100888.53;5055896;28;20550;-53
2021/03/21 04:32:46;;;;;;;11.20;2.57;;;;;;;10.39;60.69;100906.22;5055520;28;20450;-51
2021/03/21 04:35:18;;;;;;;18.30;3.50;;;;;;;10.32;60.55;100899.94;5055892;28;20434;-51
2021/03/21 04:37:48;;;;;;;23.50;3.10;;;;;;;10.69;58.91;100895.53;5055427;28;20433;-55
2021/03/21 04:40:16;;;;;;;24.27;3.37;;;;;;;10.67;59.20;100892.88;5059205;28;20525;-48
2021/03/21 04:42:46;;;;;;;10.83;2.60;;;;;;;10.91;58.38;100896.44;5055289;28;20880;-53
2021/03/21 04:45:16;;;;;;;17.43;3.07;;;;;;;10.26;58.39;100913.41;5055538;28;20459;-50
2021/03/21 04:47:47;;;;;;;15.97;2.70;;;;;;;10.51;58.07;100906.81;5055045;28;20747;-54
2021/03/21 04:50:16;;;;;;;19.90;3.77;;;;;;;9.91;57.57;100910.09;5055505;28;20464;-50
2021/03/21 04:52:46;;;;;;;18.00;3.40;;;;;;;10.11;56.23;100931.63;5054960;28;20465;-51
2021/03/21 04:55:16;;;;;;;26.17;2.97;;;;;;;9.55;56.21;100954.78;5055371;28;20441;-51
2021/03/21 04:57:45;;;;;;;24.63;4.10;;;;;;;9.62;54.87;100939.63;5055012;28;20468;-50
2021/03/21 05:00:22;;;;;;;22.13;4.20;;;;;;;9.82;53.96;100946.63;5055596;28;20430;-55
2021/03/21 05:02:53;;;;;;;31.20;4.23;;;;;;;9.44;54.81;100951.66;5054766;28;20952;-58
2021/03/21 05:05:25;;;;;;;7.70;1.97;;;;;;;9.16;54.46;100949.41;5055409;28;20521;-53
2021/03/21 05:07:54;;;;;;;29.17;4.30;;;;;;;9.83;52.65;100963.84;5054334;28;20471;-48
2021/03/21 05:10:26;;;;;;;41.17;5.47;;;;;;;9.03;53.38;100953.06;5055224;28;20549;-49
2021/03/21 05:12:57;;;;;;;38.90;4.33;;;;;;;9.49;52.16;100969.91;5054669;28;20780;-54
2021/03/21 05:15:28;;;;;;;26.33;4.50;;;;;;;9.65;52.38;100955.22;5055153;28;20908;-51
2021/03/21 05:18:08;;;;;;;20.30;3.23;;;;;;;9.66;52.71;100972.44;5054404;28;20467;-50
2021/03/21 05:20:38;;;;;;;14.37;3.00;;;;;;;9.37;53.71;100964.16;5055215;28;20455;-51
2021/03/21 05:23:17;;;;;;;29.00;4.43;;;;;;;9.69;53.42;100963.19;5054322;28;20962;-52
2021/03/21 05:25:48;;;;;;;18.83;4.57;;;;;;;9.96;52.80;100956.72;5055242;28;20475;-50
2021/03/21 05:28:20;;;;;;;42.13;6.07;;;;;;;10.14;51.73;100951.53;5054228;28;20533;-53
2021/03/21 05:30:59;;;;;;;21.93;3.80;;;;;;;10.10;51.41;100950.50;5055150;28;20945;-52
2021/03/21 05:33:26;;;;;;;28.83;3.80;;;;;;;9.80;51.62;100935.34;5053947;28;20559;-53
2021/03/21 05:35:55;;;;;;;16.20;2.80;;;;;;;9.28;52.88;100950.03;5055101;28;20442;-47
2021/03/21 05:38:29;;;;;;;29.23;5.13;;;;;;;9.64;51.37;100953.47;5054188;28;20537;-53
2021/03/21 05:41:38;;;;;;;29.67;4.40;;;;;;;10.02;50.98;100958.69;5055288;28;20898;-51
2021/03/21 05:44:26;;;;;;;32.87;5.30;;;;;;;10.30;50.88;100953.13;5034114;28;20475;-53
2021/03/21 05:47:15;;;;;;;33.50;5.63;;;;;;;9.97;51.22;100968.78;5055164;28;20430;-50
2021/03/21 05:49:53;;;;;;;24.77;5.00;;;;;;;10.06;51.09;100973.50;5054117;28;20579;-55
2021/03/21 05:53:03;;;;;;;25.00;4.97;;;;;;;10.10;51.11;100978.84;5055234;28;20466;-50
2021/03/21 05:55:51;;;;;;;41.10;4.97;;;;;;;10.17;51.64;100971.41;5034611;28;20476;-53
2021/03/21 05:58:36;;;;;;;38.40;5.87;;;;;;;10.43;50.87;100969.19;5037448;28;20450;-55
2021/03/21 06:01:44;;;;;;;36.37;4.63;;;;;;;10.45;51.15;100983.06;5058856;28;20544;-55
2021/03/21 06:04:47;;;;;;;22.00;3.27;;;;;;;10.07;51.95;100981.31;5043530;28;20455;-57
2021/03/21 06:07:51;;;;;;;31.33;5.40;;;;;;;10.45;50.55;100990.81;5039068;28;20549;-55
2021/03/21 06:10:45;;;;;;;31.87;5.00;;;;;;;10.11;51.59;100992.66;5038398;28;20513;-56
2021/03/21 06:13:20;;;;;;;41.47;7.17;;;;;;;10.58;50.69;100990.53;5043825;28;21265;-54
2021/03/21 06:15:58;;;;;;;32.00;6.17;;;;;;;10.49;51.13;101001.31;5058620;28;20459;-52
2021/03/21 06:18:51;;;;;;;30.27;6.97;;;;;;;10.25;51.31;101006.16;5065958;28;20450;-55
2021/03/21 06:21:32;;;;;;;26.67;4.70;;;;;;;10.49;50.90;101000.44;5078566;28;20430;-53
2021/03/21 06:24:41;;;;;;;27.23;5.43;;;;;;;10.31;51.46;101011.63;5077304;28;20573;-55
2021/03/21 06:27:26;;;;;;;39.67;5.47;;;;;;;10.52;51.24;100998.88;5078421;28;20429;-50
2021/03/21 06:30:23;;;;;;;31.60;4.87;;;;;;;10.71;50.78;100988.53;5076793;28;20459;-51
2021/03/21 06:33:20;;;;;;;30.70;6.13;;;;;;;10.62;50.55;101002.75;5040899;28;21216;-51
2021/03/21 06:36:03;;;;;;;34.17;6.77;;;;;;;10.41;50.99;101002.59;5077940;28;20459;-51
2021/03/21 06:38:48;;;;;;;40.53;7.13;;;;;;;10.37;51.02;101005.88;5077162;28;20479;-49
2021/03/21 06:41:39;;;;;;;36.90;4.87;;;;;;;10.43;51.59;101015.63;5078177;28;20451;-50
2021/03/21 06:44:25;;;;;;;44.40;6.80;;;;;;;10.93;50.46;101019.63;5076487;28;20883;-50
2021/03/21 06:47:37;;;;;;;50.77;6.50;;;;;;;10.06;52.29;101025.91;5078360;28;20433;-50
2021/03/21 06:50:28;;;;;;;37.50;5.53;;;;;;;9.92;52.14;101014.06;5015985;28;20523;-54
2021/03/21 06:53:01;;;;;;;36.87;6.23;;;;;;;10.76;50.95;101010.22;5018850;28;20486;-54
2021/03/21 06:55:33;;;;;;;57.40;7.13;;;;;;;10.88;50.41;101025.41;5066696;28;20430;-50
2021/03/21 06:58:39;;;;;;;27.23;4.83;;;;;;;10.43;51.53;101038.84;5076886;28;20548;-49
2021/03/21 07:01:28;;;;;;;26.87;3.30;;;;;;;10.48;51.67;101019.31;5078143;28;20455;-51
2021/03/21 07:04:39;;;;;;;27.40;5.47;;;;;;;10.50;51.63;101015.09;5076931;28;20456;-54
2021/03/21 07:07:43;;;;;;;33.77;6.53;;;;;;;10.54;51.24;101014.44;5077649;28;20437;-53
2021/03/21 07:11:01;;;;;;;39.93;5.90;;;;;;;10.57;51.09;101018.84;5077433;28;20425;-53
2021/03/21 07:13:51;;;;;;;38.47;5.70;;;;;;;10.53;51.66;101028.16;5040821;28;20471;-57
2021/03/21 07:17:02;;;;;;;40.10;5.90;;;;;;;10.89;50.75;101022.91;5077460;28;20508;-54
2021/03/21 07:20:20;;;;;;;40.33;6.07;;;;;;;10.98;50.87;101032.72;5076582;28;20481;-53
2021/03/21 07:23:34;;;;;;;31.63;5.70;;;;;;;11.02;50.95;101036.34;5065111;28;20434;-52
2021/03/21 07:26:13;;;;;;;31.43;4.50;;;;;;;10.80;50.64;101025.06;5077253;28;20520;-53
2021/03/21 07:28:58;;;;;;;32.37;5.40;;;;;;;11.06;50.67;101030.50;5076180;28;20772;-54
2021/03/21 07:31:37;;;;;;;41.20;6.30;;;;;;;11.32;49.59;101034.22;5077254;28;20573;-54
2021/03/21 07:34:36;;;;;;;45.50;6.50;;;;;;;11.45;49.95;101033.03;5075952;28;20795;-53
2021/03/21 07:37:08;;;;;;;40.33;6.47;;;;;;;11.25;49.38;101024.44;5077358;28;20455;-53
2021/03/21 07:39:43;;;;;;;22.30;4.93;;;;;;;11.10;50.21;101034.09;5076005;28;20483;-58
2021/03/21 07:42:23;;;;;;;33.20;6.83;;;;;;;10.98;50.71;101006.03;5077195;28;20512;-52
2021/03/21 07:45:06;;;;;;;34.87;5.00;;;;;;;11.40;48.78;101021.63;5075552;28;20845;-55
2021/03/21 07:47:49;;;;;;;41.53;6.77;;;;;;;11.56;48.96;101022.28;5076117;28;20525;-57
2021/03/21 07:50:28;;;;;;;32.40;6.33;;;;;;;11.90;48.07;101034.03;5076918;28;20444;-53
2021/03/21 07:53:04;;;;;;;37.67;6.90;;;;;;;11.44;48.38;101039.00;5075658;28;20450;-56
2021/03/21 07:55:35;;;;;;;40.57;6.90;;;;;;;11.12;49.30;101045.38;5076730;28;20454;-53
2021/03/21 07:58:09;;;;;;;32.30;5.00;;;;;;;11.27;48.59;101038.28;5075432;28;20486;-55
2021/03/21 08:00:36;;;;;;;26.70;4.83;;;;;;;10.97;48.84;101035.25;5076588;28;20439;-56
2021/03/21 08:03:20;;;;;;;41.17;6.53;;;;;;;11.41;48.27;101038.91;5075716;28;20471;-50
2021/03/21 08:05:51;;;;;;;36.20;6.30;;;;;;;11.51;48.09;101047.03;5076685;28;20761;-55
2021/03/21 08:08:22;;;;;;;26.27;4.93;;;;;;;11.87;47.75;101049.41;5075613;28;20548;-49
2021/03/21 08:10:52;;;;;;;26.90;5.43;;;;;;;11.91;47.91;101048.72;5073157;28;20504;-50
2021/03/21 08:13:26;;;;;;;29.90;5.07;;;;;;;11.96;46.91;101051.47;5075665;28;20486;-51
2021/03/21 08:15:53;;;;;;;27.30;6.33;;;;;;;12.26;46.89;101046.69;5076131;28;20459;-54
2021/03/21 08:18:23;;;;;;;39.00;6.33;;;;;;;12.63;45.88;101043.75;5075214;28;20478;-53
2021/03/21 08:20:52;;;;;;;38.83;5.90;;;;;;;11.82;46.63;101066.41;5076431;28;20846;-50
2021/03/21 08:23:21;;;;;;;21.50;5.00;;;;;;;12.00;46.87;101059.41;5075349;28;20483;-52
2021/03/21 08:25:48;;;;;;;30.73;4.40;;;;;;;11.74;47.98;101068.66;5075834;28;20466;-51
2021/03/21 08:28:18;;;;;;;30.90;5.17;;;;;;;11.56;47.27;101068.78;5074708;28;20536;-53
2021/03/21 08:30:50;;;;;;;28.63;4.53;;;;;;;11.50;47.43;101068.53;5076174;28;21207;-53
2021/03/21 08:33:30;;;;;;;28.43;5.63;;;;;;;11.12;48.23;101074.66;5075055;28;20474;-52
2021/03/21 08:36:12;;;;;;;32.33;5.10;;;;;;;11.59;47.31;101080.13;5075726;28;20504;-48
2021/03/21 08:38:39;;;;;;;33.73;5.53;;;;;;;11.87;47.04;101070.97;5074687;28;20475;-56
2021/03/21 08:41:07;;;;;;;36.77;6.43;;;;;;;11.64;48.27;101076.88;5075990;28;20429;-55
2021/03/21 08:43:35;;;;;;;23.13;3.80;;;;;;;11.59;47.15;101085.31;5074640;28;20776;-52
2021/03/21 08:46:09;;;;;;;32.47;5.60;;;;;;;12.04;46.96;101080.28;5075691;28;20455;-51
2021/03/21 08:48:38;;;;;;;20.03;4.27;;;;;;;11.55;47.16;101095.44;5074813;28;20802;-55
2021/03/21 08:51:24;;;;;;;28.07;5.00;;;;;;;12.10;47.25;101090.88;5072327;28;20459;-54
2021/03/21 08:53:57;;;;;;;24.43;5.30;;;;;;;12.05;46.43;101085.50;5074976;28;20492;-50
2021/03/21 08:56:26;;;;;;;19.43;4.50;;;;;;;11.92;46.22;101097.00;5075999;28;20494;-54
2021/03/21 08:58:54;;;;;;;36.50;3.50;;;;;;;11.52;46.70;101103.06;5074831;28;20757;-52
2021/03/21 09:01:23;;;;;;;28.27;5.10;;;;;;;12.46;44.92;101100.91;5075723;28;20451;-51
2021/03/21 09:03:52;;;;;;;21.37;3.90;;;;;;;11.99;45.93;101100.72;5074765;28;20445;-53
2021/03/21 09:06:30;;;;;;;26.10;4.70;;;;;;;12.50;44.87;101105.41;5075638;28;20455;-53
2021/03/21 09:09:15;;;;;;;27.33;5.00;;;;;;;11.79;45.92;101097.31;5074691;28;20481;-54
2021/03/21 09:11:44;;;;;;;35.10;5.80;;;;;;;12.73;44.12;101087.28;5075499;28;20906;-53
2021/03/21 09:14:14;;;;;;;19.10;5.10;;;;;;;12.22;45.16;101087.88;5074188;28;20481;-49
2021/03/21 09:17:00;;;;;;;40.13;5.80;;;;;;;13.12;44.13;101090.44;5075864;28;20461;-57
2021/03/21 09:19:31;;;;;;;28.27;5.23;;;;;;;13.24;43.84;101101.25;5074548;28;20532;-53
2021/03/21 09:21:58;;;;;;;22.50;4.90;;;;;;;12.69;44.13;101100.94;5075506;28;20455;-51
2021/03/21 09:24:28;;;;;;;25.73;5.37;;;;;;;12.64;44.37;101108.53;5073767;28;20819;-54
2021/03/21 09:27:17;;;;;;;25.00;4.27;;;;;;;12.50;44.36;101120.91;5075388;28;20525;-56
2021/03/21 09:29:45;;;;;;;26.07;3.63;;;;;;;12.28;45.51;101125.25;5073080;28;20565;-58
2021/03/21 09:32:25;;;;;;;30.50;4.47;;;;;;;12.89;43.71;101129.28;5073395;28;20487;-56
2021/03/21 09:35:05;;;;;;;20.63;4.47;;;;;;;13.30;43.58;101132.56;5075145;28;20437;-54
2021/03/21 09:37:35;;;;;;;24.37;3.40;;;;;;;12.95;43.79;101134.72;5078471;28;20476;-54
2021/03/21 09:40:26;;;;;;;25.63;4.80;;;;;;;12.80;43.89;101138.47;5078890;28;20982;-49
2021/03/21 09:42:57;;;;;;;26.17;4.07;;;;;;;12.74;43.46;101146.00;5078300;28;20478;-49
2021/03/21 09:45:24;;;;;;;35.37;4.67;;;;;;;12.51;44.11;101148.56;5078744;28;20454;-51
2021/03/21 09:47:54;;;;;;;18.07;4.43;;;;;;;13.02;43.14;101147.06;5075071;28;20465;-54
2021/03/21 09:50:30;;;;;;;26.37;3.90;;;;;;;13.14;43.09;101130.22;5059085;28;20470;-53
2021/03/21 09:53:08;;;;;;;24.20;5.13;;;;;;;13.61;42.52;101138.88;5061966;28;20466;-50
2021/03/21 09:55:39;;;;;;;19.60;3.20;;;;;;;13.15;42.84;101129.38;5078734;28;20770;-53
2021/03/21 09:58:19;;;;;;;23.30;3.90;;;;;;;13.07;43.58;101140.34;5071756;28;20490;-57
2021/03/21 10:00:51;;;;;;;19.27;3.80;;;;;;;13.36;42.42;101132.78;5058633;28;20479;-50
2021/03/21 10:03:26;;;;;;;21.57;3.60;;;;;;;13.88;41.00;101137.19;5064610;28;20474;-52
2021/03/21 10:06:00;;;;;;;21.13;3.57;;;;;;;12.92;43.56;101139.78;5078533;28;20458;-50
2021/03/21 10:08:38;;;;;;;22.33;3.80;;;;;;;13.33;41.19;101153.38;5077299;28;20483;-53
2021/03/21 10:11:07;;;;;;;31.43;3.87;;;;;;;12.61;42.71;101144.63;5078396;28;20461;-51
2021/03/21 10:13:36;;;;;;;28.27;3.97;;;;;;;13.16;42.02;101144.09;5077664;28;20474;-52
2021/03/21 10:16:19;;;;;;;23.87;4.60;;;;;;;13.69;41.13;101162.47;5078033;28;20494;-53
2021/03/21 10:18:48;;;;;;;17.10;3.40;;;;;;;13.95;41.67;101153.84;5077008;28;20563;-58
2021/03/21 10:21:30;;;;;;;15.33;3.23;;;;;;;13.67;40.67;101158.06;5078750;28;20551;-52
2021/03/21 10:24:36;;;;;;;18.37;3.70;;;;;;;12.66;42.08;101168.09;5076812;28;20517;-52
2021/03/21 10:27:40;;;;;;;23.97;3.63;;;;;;;12.89;42.04;101170.72;5078155;28;20558;-53
2021/03/21 10:30:25;;;;;;;15.90;3.40;;;;;;;13.13;41.10;101168.19;5077828;28;20460;-53
2021/03/21 10:33:31;;;;;;;20.00;3.67;;;;;;;13.40;41.84;101167.47;5076558;28;20479;-48
2021/03/21 10:35:58;;;;;;;23.60;3.70;;;;;;;13.55;40.75;101174.97;5077995;28;20471;-55
2021/03/21 10:38:54;;;;;;;15.83;2.20;;;;;;;12.29;42.91;101186.50;5076900;28;20477;-57
2021/03/21 10:41:55;;;;;;;17.60;3.83;;;;;;;13.55;40.83;101180.13;5077820;28;20455;-56
2021/03/21 10:44:56;;;;;;;13.97;2.90;;;;;;;13.02;41.53;101191.09;5060854;28;20459;-54
2021/03/21 10:47:53;;;;;;;19.87;3.70;;;;;;;13.19;41.31;101186.56;5056792;28;20549;-55
2021/03/21 10:50:55;;;;;;;11.40;2.60;;;;;;;13.80;40.66;101182.72;4996214;28;20515;-50
2021/03/21 10:53:30;;;;;;;16.17;3.03;;;;;;;13.87;39.65;101193.38;5052794;28;20716;-58
2021/03/21 10:56:13;;;;;;;15.33;2.90;;;;;;;14.36;39.00;101195.00;5057409;28;20467;-53
2021/03/21 10:58:55;;;;;;;15.17;3.00;;;;;;;14.28;39.68;101187.84;5070802;28;20501;-49
2021/03/21 11:01:33;;;;;;;11.73;2.63;;;;;;;13.97;38.80;101191.09;5076180;28;20549;-52
2021/03/21 11:04:05;;;;;;;20.53;2.90;;;;;;;14.25;37.85;101195.50;5076496;28;20842;-55
2021/03/21 11:06:33;;;;;;;26.90;3.50;;;;;;;14.21;38.03;101192.75;5077689;28;20871;-55
2021/03/21 11:09:11;;;;;;;12.63;3.30;;;;;;;14.11;38.41;101196.75;5076319;28;20476;-55
2021/03/21 11:11:40;;;;;;;17.13;2.70;;;;;;;14.39;37.70;101201.16;5077532;28;20485;-55
2021/03/21 11:14:14;;;;;;;11.67;2.30;;;;;;;14.31;37.71;101192.25;5074922;28;20468;-53
2021/03/21 11:16:50;;;;;;;11.10;2.90;;;;;;;14.08;37.97;101197.53;5077411;28;20459;-53
2021/03/21 11:19:35;;;;;;;21.73;3.50;;;;;;;13.56;38.62;101189.69;5076201;28;20487;-53
2021/03/21 11:22:11;;;;;;;13.00;2.30;;;;;;;14.25;37.52;101192.03;5077047;28;20456;-53
2021/03/21 11:24:41;;;;;;;14.27;2.93;;;;;;;14.41;37.99;101193.44;5082594;28;20840;-55
2021/03/21 11:27:12;;;;;;;13.67;3.30;;;;;;;14.53;37.55;101191.25;5077127;28;20467;-58
2021/03/21 11:29:42;;;;;;;12.47;2.63;;;;;;;14.70;36.78;101183.97;5075708;28;20564;-54
2021/03/21 11:32:21;;;;;;;14.27;1.87;;;;;;;13.72;37.64;101190.22;5077068;28;20547;-54
2021/03/21 11:34:57;;;;;;;9.73;2.20;;;;;;;14.41;36.53;101188.25;5075595;28;20607;-49
2021/03/21 11:37:28;;;;;;;13.93;2.80;;;;;;;13.68;37.83;101183.19;5076804;28;20465;-56
2021/03/21 11:39:58;;;;;;;13.27;2.97;;;;;;;14.05;37.82;101187.03;5056076;28;21001;-52
2021/03/21 11:42:28;;;;;;;8.03;2.20;;;;;;;14.27;37.04;101192.97;5057334;28;20852;-55
2021/03/21 11:45:15;;;;;;;19.83;3.10;;;;;;;14.91;36.22;101188.09;5055854;28;20468;-55
2021/03/21 11:47:43;;;;;;;16.73;2.90;;;;;;;15.07;36.89;101193.78;5056226;28;20551;-52
2021/03/21 11:50:16;;;;;;;16.37;2.97;;;;;;;14.98;35.78;101184.00;5076639;28;20449;-57
2021/03/21 11:52:44;;;;;;;10.97;2.20;;;;;;;14.79;35.68;101178.22;5075612;28;20960;-54
2021/03/21 11:55:15;;;;;;;10.93;2.20;;;;;;;14.85;35.06;101188.81;5064863;28;20524;-49
2021/03/21 11:57:56;;;;;;;13.77;2.97;;;;;;;15.57;35.12;101179.59;5057094;28;20466;-55
2021/03/21 12:00:25;;;;;;;16.77;3.10;;;;;;;15.12;34.71;101180.09;5076651;28;20555;-51